Levittown, Puerto Rico
Current Conditions -  °F | °C
As of 4:50 PM on Thursday 18 Dec 2014 (Local Time) from TJBQ Reporting Station
Scattered Clouds Scattered Clouds  
Wind Chill: 79°   Ceiling: Unl
Heat Index: 81°   Visibility: 10mi
Dew Point: 66°   Wind: 14mph
Humidity: 65%   Direction: 80°E
Pressure: 29.99"   Gusts: NA
Location:  18.4°N, 66.8°W
Report Text: TJBQ 182050Z 08012KT 10SM SCT028 SCT034 SCT041 26/19 A2999 RMK RWY08 ATIS A
Loading
Personal Weather Stations






























Interactive Weather Map New forecast layout! Learn more

10-Day Weather Forecast

Advertisements
Track Severe Weather on mobile